METAR Data
IDs: Format: Raw Decoded Include TAF

Data at: 0219 UTC 19 Oct 2021

KELD 190153Z AUTO A3012 RMK AO2 SLPNO PWINO FZRANO $
KELD 190053Z AUTO A3011 RMK AO2 SLPNO PWINO FZRANO $
KELD 182353Z AUTO A3010 RMK AO2 SLPNO 56007 PWINO FZRANO $
KELD 182253Z AUTO A3010 RMK AO2 SLPNO PWINO FZRANO $
KELD 182153Z AUTO A3010 RMK AO2 SLPNO PWINO FZRANO $
KELD 182053Z AUTO A3012 RMK AO2 SLPNO 56027 PWINO FZRANO $
KELD 181953Z AUTO A3014 RMK AO2 SLPNO PWINO FZRANO $
KELD 181853Z AUTO A3017 RMK AO2 SLPNO PWINO FZRANO $
KELD 181753Z AUTO A3020 RMK AO2 SLPNO 10211 20072 58013 PWINO FZRANO $
KELD 181653Z AUTO 18006KT 10SM CLR 21/07 A3023 RMK AO2 SLP233 T02060067
KELD 181553Z AUTO 14007KT 10SM CLR 19/08 A3024 RMK AO2 SLP237 T01890078
KELD 181453Z AUTO 16005KT 10SM CLR 16/09 A3024 RMK AO2 SLP240 T01610089 53012
KELD 181353Z AUTO 00000KT 10SM CLR 12/09 A3024 RMK AO2 SLP237 T01170094
KELD 181253Z AUTO 00000KT 10SM CLR 07/06 A3021 RMK AO2 SLP230 T00720061
KELD 181153Z AUTO 00000KT 10SM CLR 08/07 A3021 RMK AO2 SLP228 T00780067 10100 20072 53006 $
KELD 181053Z AUTO 00000KT 10SM CLR 08/07 A3020 RMK AO2 SLP226 T00780067 $
KELD 180953Z AUTO 00000KT 10SM CLR 07/06 A3019 RMK AO2 SLP223 T00720061 $
KELD 180853Z AUTO 00000KT 5SM BR CLR 08/07 A3019 RMK AO2 SLP221 T00780067 55005 $
KELD 180753Z AUTO 00000KT 10SM CLR 08/07 A3018 RMK AO2 SLP219 T00830072 $
KELD 180653Z AUTO 00000KT 10SM CLR 09/08 A3019 RMK AO2 SLP222 T00890078 $
KELD 180553Z AUTO 00000KT 10SM CLR 10/08 A3021 RMK AO2 SLP227 T01000083 10139 20089 402280056 57008 $
KELD 180453Z AUTO 00000KT 10SM CLR 10/08 A3021 RMK AO2 SLP229 T01000083 $
KELD 180353Z AUTO 00000KT 10SM CLR 09/08 A3023 RMK AO2 SLP233 T00940083 $
KELD 180253Z AUTO 00000KT 10SM CLR 09/08 A3023 RMK AO2 SLP236 T00940083 53006 $
KELD 180153Z AUTO 00000KT 10SM CLR 11/09 A3022 RMK AO2 SLP234 T01060089 $
KELD 180053Z AUTO 00000KT 10SM CLR 12/08 A3022 RMK AO2 SLP232 T01220083 $
KELD 172353Z AUTO 00000KT 10SM CLR 14/10 A3021 RMK AO2 SLP230 T01390100 10228 20139 56005 $
KELD 172253Z AUTO 36003KT 10SM CLR 18/11 A3021 RMK AO2 SLP230 T01780106 $
KELD 172153Z AUTO VRB05KT 10SM CLR 22/06 A3022 RMK AO2 SLP232 T02170056 $
KELD 172053Z AUTO 06005KT 10SM CLR 22/06 A3023 RMK AO2 SLP234 T02220056 56028 $
KELD 171953Z AUTO 00000KT 10SM CLR 22/04 A3025 RMK AO2 SLP241 T02170039 $
KELD 171853Z AUTO 30004KT 10SM CLR 22/04 A3028 RMK AO2 SLP251 T02170039 $
KELD 171753Z AUTO VRB04KT 10SM CLR 21/04 A3031 RMK AO2 SLP263 T02110039 10217 20056 58010 $
KELD 171653Z AUTO 06005KT 10SM CLR 21/05 A3034 RMK AO2 SLP272 T02060050 $
KELD 171553Z AUTO VRB03KT 10SM CLR 18/07 A3034 RMK AO2 SLP273 T01780067 $
KELD 171453Z AUTO 06004KT 10SM CLR 16/07 A3034 RMK AO2 SLP274 T01560072 53012 $